createdAt,value
2018-01-10T00:00:59.438Z,5.18
2018-01-10T00:02:02.378Z,5.18
2018-01-10T00:03:05.279Z,5.21
2018-01-10T00:04:08.233Z,5.28
2018-01-10T00:05:11.163Z,5.26
2018-01-10T00:06:14.005Z,5.23
2018-01-10T00:07:17.240Z,5.24
2018-01-10T00:08:20.110Z,5.30
2018-01-10T00:09:22.912Z,5.39
2018-01-10T00:10:25.788Z,5.42
2018-01-10T00:11:28.642Z,5.54
2018-01-10T00:12:31.538Z,5.60
2018-01-10T00:13:34.687Z,5.71
2018-01-10T00:14:37.682Z,5.77
2018-01-10T00:15:40.533Z,5.73
2018-01-10T00:16:43.459Z,5.72
2018-01-10T00:17:46.382Z,5.74
2018-01-10T00:18:49.376Z,5.72
2018-01-10T00:19:52.633Z,5.76
2018-01-10T00:20:55.557Z,5.78
2018-01-10T00:21:58.511Z,5.81
2018-01-10T00:23:01.432Z,5.72
2018-01-10T00:24:04.342Z,5.69
2018-01-10T00:25:07.257Z,5.70
2018-01-10T00:26:10.500Z,5.77
2018-01-10T00:27:13.644Z,5.72
2018-01-10T00:28:16.609Z,5.75
2018-01-10T00:29:19.602Z,5.79
2018-01-10T00:30:22.572Z,5.81
2018-01-10T00:31:25.519Z,5.81
2018-01-10T00:32:28.931Z,5.85
2018-01-10T00:33:31.865Z,5.87
2018-01-10T00:34:34.752Z,5.88
2018-01-10T00:35:37.691Z,5.90
2018-01-10T00:36:40.868Z,5.93
2018-01-10T00:37:43.803Z,5.90
2018-01-10T00:38:47.242Z,5.93
2018-01-10T00:39:50.152Z,5.90
2018-01-10T00:40:53.036Z,5.88
2018-01-10T00:41:55.991Z,5.87
2018-01-10T00:42:58.963Z,5.87
2018-01-10T00:44:01.908Z,5.88
2018-01-10T00:45:05.241Z,5.88
2018-01-10T00:46:08.175Z,5.93
2018-01-10T00:47:11.088Z,5.93
2018-01-10T00:48:14.029Z,5.96
2018-01-10T00:49:16.992Z,5.90
2018-01-10T00:50:19.990Z,5.94
2018-01-10T00:51:23.295Z,5.94
2018-01-10T00:52:26.227Z,5.97
2018-01-10T00:53:29.187Z,6.03
2018-01-10T00:54:32.209Z,6.01
2018-01-10T00:55:35.184Z,6.08
2018-01-10T00:56:38.132Z,6.06
2018-01-10T00:57:41.384Z,5.97
2018-01-10T00:58:44.293Z,6.00
2018-01-10T00:59:47.236Z,6.05
2018-01-10T01:00:50.197Z,6.05
2018-01-10T01:01:53.130Z,6.03
2018-01-10T01:02:56.125Z,5.92
2018-01-10T01:03:59.463Z,5.91
2018-01-10T01:05:02.464Z,5.94
2018-01-10T01:06:05.384Z,5.98
2018-01-10T01:07:08.280Z,6.01
2018-01-10T01:08:11.236Z,5.99
2018-01-10T01:09:14.129Z,6.01
2018-01-10T01:10:17.490Z,6.09
2018-01-10T01:11:20.507Z,6.07
2018-01-10T01:12:23.422Z,6.09
2018-01-10T01:13:26.342Z,6.15
2018-01-10T01:14:29.266Z,6.12
2018-01-10T01:15:32.183Z,6.15
2018-01-10T01:16:35.564Z,6.12
2018-01-10T01:17:38.555Z,6.17
2018-01-10T01:18:41.497Z,6.14
2018-01-10T01:19:44.402Z,6.15
2018-01-10T01:20:47.315Z,6.13
2018-01-10T01:21:50.205Z,6.12
2018-01-10T01:22:53.608Z,6.12
2018-01-10T01:23:56.520Z,6.06
2018-01-10T01:24:59.438Z,6.04
2018-01-10T01:26:02.337Z,6.04
2018-01-10T01:27:05.232Z,5.96
2018-01-10T01:28:08.144Z,6.01
2018-01-10T01:29:11.460Z,6.00
2018-01-10T01:30:14.404Z,5.99
2018-01-10T01:31:17.369Z,5.96
2018-01-10T01:32:20.276Z,5.98
2018-01-10T01:33:23.152Z,6.10
2018-01-10T01:34:26.087Z,6.06
2018-01-10T01:35:29.341Z,6.14
2018-01-10T01:36:32.747Z,6.08
2018-01-10T01:37:35.666Z,6.05
2018-01-10T01:38:38.776Z,6.10
2018-01-10T01:39:41.661Z,6.08
2018-01-10T01:40:44.596Z,6.00
2018-01-10T01:41:48.000Z,6.03
2018-01-10T01:42:50.919Z,6.01
2018-01-10T01:43:53.794Z,5.97
2018-01-10T01:44:56.805Z,5.91
2018-01-10T01:45:59.697Z,5.92
2018-01-10T01:47:02.618Z,5.95
2018-01-10T01:48:05.829Z,5.98
2018-01-10T01:49:08.733Z,5.93
2018-01-10T01:50:11.678Z,5.92
2018-01-10T01:51:14.619Z,5.93
2018-01-10T01:52:17.562Z,5.95
2018-01-10T01:53:20.500Z,5.92
2018-01-10T01:54:23.969Z,5.91
2018-01-10T01:55:26.923Z,5.89
2018-01-10T01:56:29.864Z,5.82
2018-01-10T01:57:32.850Z,5.84
2018-01-10T01:58:35.810Z,5.81
2018-01-10T01:59:38.975Z,5.86
2018-01-10T02:00:42.442Z,5.83
2018-01-10T02:01:45.374Z,5.80
2018-01-10T02:02:48.319Z,5.78
2018-01-10T02:03:51.280Z,5.81
2018-01-10T02:04:54.221Z,5.78
2018-01-10T02:05:57.173Z,5.75
2018-01-10T02:07:00.466Z,5.76
2018-01-10T02:08:03.435Z,5.72
2018-01-10T02:09:06.371Z,5.69
2018-01-10T02:10:09.325Z,5.66
2018-01-10T02:11:12.323Z,5.64
2018-01-10T02:12:15.243Z,5.64
2018-01-10T02:13:18.507Z,5.61
2018-01-10T02:14:21.442Z,5.65
2018-01-10T02:15:24.356Z,5.66
2018-01-10T02:16:28.172Z,5.64
2018-01-10T02:17:31.133Z,5.60
2018-01-10T02:18:34.016Z,5.63
2018-01-10T02:19:37.397Z,5.59
2018-01-10T02:20:40.408Z,5.66
2018-01-10T02:21:43.336Z,5.61
2018-01-10T02:22:46.292Z,5.60
2018-01-10T02:23:49.226Z,5.60
2018-01-10T02:24:52.168Z,5.56
2018-01-10T02:25:55.562Z,5.54
2018-01-10T02:26:58.547Z,5.57
2018-01-10T02:28:02.300Z,5.59
2018-01-10T02:29:05.298Z,5.61
2018-01-10T02:30:08.316Z,5.69
2018-01-10T02:31:11.288Z,5.78
2018-01-10T02:32:14.633Z,5.75
2018-01-10T02:33:17.636Z,5.76
2018-01-10T02:34:20.623Z,5.77
2018-01-10T02:35:26.884Z,5.74
2018-01-10T02:36:29.807Z,5.66
2018-01-10T02:37:32.748Z,5.66
2018-01-10T02:38:36.029Z,5.70
2018-01-10T02:39:38.944Z,5.71
2018-01-10T02:40:41.843Z,5.71
2018-01-10T02:41:44.746Z,5.69
2018-01-10T02:42:47.704Z,5.72
2018-01-10T02:43:50.658Z,5.70
2018-01-10T02:44:53.921Z,5.78
2018-01-10T02:45:56.900Z,5.79
2018-01-10T02:46:59.824Z,5.73
2018-01-10T02:48:02.794Z,5.74
2018-01-10T02:49:05.747Z,5.74
2018-01-10T02:50:08.643Z,5.70
2018-01-10T02:51:12.082Z,5.75
2018-01-10T02:52:15.128Z,5.72
2018-01-10T02:53:17.990Z,5.69
2018-01-10T02:54:20.864Z,5.70
2018-01-10T02:55:23.706Z,5.74
2018-01-10T02:56:26.563Z,5.65
2018-01-10T02:57:29.864Z,5.65
2018-01-10T02:58:32.720Z,5.69
2018-01-10T02:59:35.595Z,5.71
2018-01-10T03:00:38.415Z,5.68
2018-01-10T03:01:41.350Z,5.74
2018-01-10T03:02:44.302Z,5.68
2018-01-10T03:03:47.596Z,5.76
2018-01-10T03:04:50.534Z,5.80
2018-01-10T03:05:53.456Z,5.76
2018-01-10T03:06:56.423Z,5.74
2018-01-10T03:07:59.278Z,5.82
2018-01-10T03:09:02.096Z,5.81
2018-01-10T03:10:05.462Z,5.92
2018-01-10T03:11:08.455Z,5.91
2018-01-10T03:12:11.460Z,5.88
2018-01-10T03:13:14.384Z,5.89
2018-01-10T03:14:17.346Z,5.95
2018-01-10T03:15:20.284Z,5.98
2018-01-10T03:16:23.749Z,5.95
2018-01-10T03:17:26.677Z,6.01
2018-01-10T03:18:29.647Z,6.02
2018-01-10T03:19:32.598Z,5.98
2018-01-10T03:20:35.554Z,5.96
2018-01-10T03:21:38.491Z,5.93
2018-01-10T03:22:41.778Z,5.95
2018-01-10T03:23:44.750Z,5.89
2018-01-10T03:24:47.720Z,5.95
2018-01-10T03:25:50.692Z,5.93
2018-01-10T03:26:53.623Z,5.89
2018-01-10T03:27:56.584Z,5.93
2018-01-10T03:29:00.010Z,5.98
2018-01-10T03:30:02.970Z,5.91
2018-01-10T03:31:05.948Z,5.87
2018-01-10T03:32:08.950Z,5.89
2018-01-10T03:33:11.904Z,5.89
2018-01-10T03:34:14.846Z,5.96
2018-01-10T03:35:18.309Z,5.90
2018-01-10T03:36:21.273Z,5.83
2018-01-10T03:37:24.259Z,5.89
2018-01-10T03:38:27.241Z,5.92
2018-01-10T03:39:30.247Z,5.84
2018-01-10T03:40:33.236Z,5.78
2018-01-10T03:41:36.559Z,5.90
2018-01-10T03:42:39.509Z,5.84
2018-01-10T03:43:42.441Z,5.81
2018-01-10T03:44:45.430Z,5.84
2018-01-10T03:45:48.396Z,5.83
2018-01-10T03:46:51.368Z,5.79
2018-01-10T03:47:54.805Z,5.79
2018-01-10T03:48:57.793Z,5.86
2018-01-10T03:50:00.804Z,5.74
2018-01-10T03:51:03.847Z,5.84
2018-01-10T03:52:07.144Z,5.79
2018-01-10T03:53:10.120Z,5.75
2018-01-10T03:54:13.514Z,5.71
2018-01-10T03:55:16.500Z,5.71
2018-01-10T03:56:19.461Z,5.71
2018-01-10T03:57:22.415Z,5.71
2018-01-10T03:58:25.343Z,5.78
2018-01-10T03:59:28.228Z,5.72
2018-01-10T04:00:31.589Z,5.71
2018-01-10T04:01:34.477Z,5.67
2018-01-10T04:02:37.379Z,5.67
2018-01-10T04:03:40.348Z,5.68
2018-01-10T04:04:43.305Z,5.70
2018-01-10T04:05:46.242Z,5.62
2018-01-10T04:06:49.645Z,5.64
2018-01-10T04:07:52.625Z,5.64
2018-01-10T04:08:55.595Z,5.60
2018-01-10T04:09:58.579Z,5.57
2018-01-10T04:11:01.505Z,5.60
2018-01-10T04:12:04.507Z,5.57
2018-01-10T04:13:07.931Z,5.59
2018-01-10T04:14:10.865Z,5.63
2018-01-10T04:15:13.823Z,5.61
2018-01-10T04:16:16.788Z,5.60
2018-01-10T04:17:19.777Z,5.54
2018-01-10T04:18:22.818Z,5.64
2018-01-10T04:19:26.133Z,5.63
2018-01-10T04:20:29.186Z,5.69
2018-01-10T04:21:32.134Z,5.71
2018-01-10T04:22:35.122Z,5.68
2018-01-10T04:23:38.074Z,5.66
2018-01-10T04:24:41.067Z,5.61
2018-01-10T04:25:44.471Z,5.62
2018-01-10T04:26:47.553Z,5.65
2018-01-10T04:27:50.579Z,5.66
2018-01-10T04:28:53.576Z,5.65
2018-01-10T04:29:56.520Z,5.66
2018-01-10T04:30:59.522Z,5.74
2018-01-10T04:32:02.980Z,5.69
2018-01-10T04:33:05.983Z,5.68
2018-01-10T04:34:08.944Z,5.62
2018-01-10T04:35:11.951Z,5.60
2018-01-10T04:36:14.896Z,5.68
2018-01-10T04:37:17.893Z,5.69
2018-01-10T04:38:22.112Z,5.43
2018-01-10T04:39:25.114Z,5.46
2018-01-10T04:40:28.083Z,5.47
2018-01-10T04:41:30.999Z,5.56
2018-01-10T04:42:33.948Z,5.60
2018-01-10T04:43:36.883Z,5.62
2018-01-10T04:44:40.175Z,5.53
2018-01-10T04:45:43.129Z,5.55
2018-01-10T04:46:46.099Z,5.67
2018-01-10T04:47:49.057Z,5.61
2018-01-10T04:48:52.038Z,5.64
2018-01-10T04:49:54.999Z,5.68
2018-01-10T04:50:58.299Z,5.69
2018-01-10T04:52:01.211Z,5.64
2018-01-10T04:53:04.192Z,5.59
2018-01-10T04:54:07.127Z,5.70
2018-01-10T04:55:10.088Z,5.54
2018-01-10T04:56:13.058Z,5.45
2018-01-10T04:57:16.394Z,5.41
2018-01-10T04:58:19.330Z,5.37
2018-01-10T04:59:22.173Z,5.51
2018-01-10T05:00:25.016Z,5.43
2018-01-10T05:01:27.871Z,5.43
2018-01-10T05:02:30.756Z,5.52
2018-01-10T05:03:34.085Z,5.61
2018-01-10T05:04:37.630Z,5.54
2018-01-10T05:05:40.587Z,5.57
2018-01-10T05:06:43.572Z,5.40
2018-01-10T05:07:46.530Z,5.47
2018-01-10T05:08:49.473Z,5.51
2018-01-10T05:09:52.846Z,5.52
2018-01-10T05:10:55.776Z,5.51
2018-01-10T05:11:58.721Z,5.53
2018-01-10T05:13:01.729Z,5.55
2018-01-10T05:14:04.682Z,5.55
2018-01-10T05:15:07.727Z,5.61
2018-01-10T05:16:11.012Z,5.53
2018-01-10T05:17:13.956Z,5.44
2018-01-10T05:18:16.899Z,5.48
2018-01-10T05:19:19.880Z,5.31
2018-01-10T05:20:23.664Z,5.42
2018-01-10T05:21:26.637Z,5.39
2018-01-10T05:22:29.912Z,5.59
2018-01-10T05:23:32.868Z,5.59
2018-01-10T05:24:35.819Z,5.50
2018-01-10T05:25:38.781Z,5.42
2018-01-10T05:26:41.763Z,5.54
2018-01-10T05:27:44.732Z,5.56
2018-01-10T05:28:48.183Z,5.56
2018-01-10T05:29:51.136Z,5.47
2018-01-10T05:30:54.103Z,5.58
2018-01-10T05:31:57.070Z,5.49
2018-01-10T05:32:59.994Z,5.44
2018-01-10T05:34:02.965Z,5.51
2018-01-10T05:35:06.287Z,5.55
2018-01-10T05:36:09.211Z,5.50
2018-01-10T05:37:12.192Z,5.26
2018-01-10T05:38:15.141Z,5.17
2018-01-10T05:39:18.173Z,5.22
2018-01-10T05:40:21.119Z,5.28
2018-01-10T05:41:24.567Z,5.27
2018-01-10T05:42:27.538Z,5.37
2018-01-10T05:43:30.512Z,5.31
2018-01-10T05:44:33.531Z,5.38
2018-01-10T05:45:36.507Z,5.44
2018-01-10T05:46:39.450Z,5.34
2018-01-10T05:47:42.777Z,5.36
2018-01-10T05:48:45.786Z,5.29
2018-01-10T05:49:48.850Z,5.25
2018-01-10T05:50:51.861Z,5.26
2018-01-10T05:51:54.818Z,5.29
2018-01-10T05:52:57.760Z,5.23
2018-01-10T05:54:01.285Z,5.25
2018-01-10T05:55:04.336Z,5.27
2018-01-10T05:56:07.279Z,5.29
2018-01-10T05:57:10.242Z,5.29
2018-01-10T05:58:13.230Z,5.30
2018-01-10T05:59:16.176Z,5.29
2018-01-10T06:00:19.536Z,5.31
2018-01-10T06:01:22.467Z,5.37
2018-01-10T06:02:25.418Z,5.43
2018-01-10T06:03:28.376Z,5.27
2018-01-10T06:04:31.348Z,5.32
2018-01-10T06:05:34.311Z,5.24
2018-01-10T06:06:37.291Z,5.25
2018-01-10T06:07:40.304Z,5.20
2018-01-10T06:08:43.328Z,5.27
2018-01-10T06:09:46.318Z,5.37
2018-01-10T06:10:49.271Z,5.28
2018-01-10T06:11:52.757Z,5.29
2018-01-10T06:12:55.706Z,5.25
2018-01-10T06:13:58.722Z,5.25
2018-01-10T06:15:01.659Z,5.23
2018-01-10T06:16:04.592Z,5.20
2018-01-10T06:17:07.580Z,5.25
2018-01-10T06:18:10.992Z,5.23
2018-01-10T06:19:14.028Z,5.24
2018-01-10T06:20:17.286Z,5.25
2018-01-10T06:21:20.234Z,5.25
2018-01-10T06:22:23.153Z,5.23
2018-01-10T06:23:26.029Z,5.24
2018-01-10T06:24:29.398Z,5.35
2018-01-10T06:25:32.412Z,5.30
2018-01-10T06:26:35.379Z,5.32
2018-01-10T06:27:38.886Z,5.29
2018-01-10T06:28:42.130Z,5.27
2018-01-10T06:29:46.061Z,5.33
2018-01-10T06:30:48.996Z,5.39
2018-01-10T06:31:51.964Z,5.40
2018-01-10T06:32:54.942Z,5.30
2018-01-10T06:33:58.125Z,5.31
2018-01-10T06:35:02.401Z,5.33
2018-01-10T06:36:05.992Z,5.40
2018-01-10T06:37:08.960Z,5.37
2018-01-10T06:38:11.948Z,5.36
2018-01-10T06:39:14.857Z,5.44
2018-01-10T06:40:17.777Z,5.31
2018-01-10T06:41:20.794Z,5.25
2018-01-10T06:42:24.281Z,5.17
2018-01-10T06:43:27.272Z,5.24
2018-01-10T06:44:30.236Z,5.28
2018-01-10T06:45:33.291Z,5.25
2018-01-10T06:46:36.358Z,5.22
2018-01-10T06:47:39.304Z,5.26
2018-01-10T06:48:42.713Z,5.35
2018-01-10T06:49:45.699Z,5.28
2018-01-10T06:50:48.668Z,5.25
2018-01-10T06:51:51.605Z,5.36
2018-01-10T06:52:54.547Z,5.33
2018-01-10T06:53:58.080Z,5.34
2018-01-10T06:55:01.091Z,5.33
2018-01-10T06:56:04.016Z,5.24
2018-01-10T06:57:07.011Z,5.27
2018-01-10T06:58:09.986Z,5.28
2018-01-10T06:59:12.930Z,5.31
2018-01-10T07:00:16.504Z,5.34
2018-01-10T07:01:19.439Z,5.30
2018-01-10T07:02:22.487Z,5.29
2018-01-10T07:03:25.748Z,5.28
2018-01-10T07:04:28.698Z,5.32
2018-01-10T07:05:31.672Z,5.32
2018-01-10T07:06:34.978Z,5.33
2018-01-10T07:07:37.970Z,5.30
2018-01-10T07:08:40.940Z,5.33
2018-01-10T07:09:43.939Z,5.29
2018-01-10T07:10:46.971Z,5.28
2018-01-10T07:11:50.065Z,5.37
2018-01-10T07:12:53.563Z,5.40
2018-01-10T07:13:56.546Z,5.38
2018-01-10T07:14:59.548Z,5.40
2018-01-10T07:16:02.529Z,5.45
2018-01-10T07:17:05.617Z,5.48
2018-01-10T07:18:08.615Z,5.53
2018-01-10T07:19:12.740Z,5.37
2018-01-10T07:20:15.764Z,5.29
2018-01-10T07:21:20.156Z,5.24
2018-01-10T07:22:23.191Z,5.29
2018-01-10T07:23:26.131Z,5.32
2018-01-10T07:24:29.091Z,5.30
2018-01-10T07:25:32.391Z,5.25
2018-01-10T07:26:35.469Z,5.23
2018-01-10T07:27:38.649Z,5.23
2018-01-10T07:28:41.578Z,5.27
2018-01-10T07:29:44.545Z,5.34
2018-01-10T07:30:47.608Z,5.31
2018-01-10T07:31:50.670Z,5.26
2018-01-10T07:32:53.623Z,5.28
2018-01-10T07:33:56.587Z,5.29
2018-01-10T07:35:00.057Z,5.30
2018-01-10T07:36:03.119Z,5.25
2018-01-10T07:37:06.505Z,5.26
2018-01-10T07:38:09.478Z,5.27
2018-01-10T07:39:12.452Z,5.29
2018-01-10T07:40:15.392Z,5.33
2018-01-10T07:41:18.395Z,5.23
2018-01-10T07:42:21.360Z,5.26
2018-01-10T07:43:24.719Z,5.23
2018-01-10T07:44:27.714Z,5.27
2018-01-10T07:45:31.070Z,5.27
2018-01-10T07:46:34.058Z,5.25
2018-01-10T07:47:37.025Z,5.30
2018-01-10T07:48:39.961Z,5.29
2018-01-10T07:49:43.428Z,5.25
2018-01-10T07:50:46.608Z,5.34
2018-01-10T07:51:49.590Z,5.30
2018-01-10T07:52:52.628Z,5.30
2018-01-10T07:53:55.644Z,5.39
2018-01-10T07:54:58.578Z,5.44
2018-01-10T07:56:01.896Z,5.35
2018-01-10T07:57:04.856Z,5.23
2018-01-10T07:58:07.929Z,5.24
2018-01-10T07:59:11.094Z,5.23
2018-01-10T08:00:14.135Z,5.31
2018-01-10T08:01:17.268Z,5.31
2018-01-10T08:02:20.524Z,5.26
2018-01-10T08:03:23.623Z,5.33
2018-01-10T08:04:26.582Z,5.32
2018-01-10T08:05:29.616Z,5.32
2018-01-10T08:06:32.520Z,5.39
2018-01-10T08:07:35.566Z,5.37
2018-01-10T08:08:39.269Z,5.39
2018-01-10T08:09:42.221Z,5.35
2018-01-10T08:10:45.180Z,5.36
2018-01-10T08:11:48.252Z,5.35
2018-01-10T08:12:51.176Z,5.37
2018-01-10T08:13:54.133Z,5.37
2018-01-10T08:14:57.549Z,5.40
2018-01-10T08:16:00.584Z,5.33
2018-01-10T08:17:03.579Z,5.42
2018-01-10T08:18:06.601Z,5.44
2018-01-10T08:19:09.623Z,5.31
2018-01-10T08:20:12.548Z,5.32
2018-01-10T08:21:15.867Z,5.31
2018-01-10T08:22:18.909Z,5.46
2018-01-10T08:23:22.353Z,5.43
2018-01-10T08:24:25.588Z,5.43
2018-01-10T08:25:28.607Z,5.35
2018-01-10T08:26:31.593Z,5.40
2018-01-10T08:27:34.580Z,5.50
2018-01-10T08:28:37.950Z,5.45
2018-01-10T08:29:41.049Z,5.45
2018-01-10T08:30:44.685Z,5.45
2018-01-10T08:31:47.755Z,5.47
2018-01-10T08:32:51.329Z,5.44
2018-01-10T08:33:55.128Z,5.47
2018-01-10T08:34:58.180Z,5.54
2018-01-10T08:36:01.182Z,5.48
2018-01-10T08:37:04.192Z,5.45
2018-01-10T08:38:07.197Z,5.53
2018-01-10T08:39:10.171Z,5.49
2018-01-10T08:40:14.120Z,5.48
2018-01-10T08:41:17.133Z,5.46
2018-01-10T08:42:20.186Z,5.47
2018-01-10T08:43:23.283Z,5.56
2018-01-10T08:44:26.254Z,5.48
2018-01-10T08:45:29.231Z,5.47
2018-01-10T08:46:34.599Z,5.49
2018-01-10T08:47:37.644Z,5.51
2018-01-10T08:48:40.599Z,5.58
2018-01-10T08:49:43.549Z,5.55
2018-01-10T08:50:46.548Z,5.53
2018-01-10T08:51:49.521Z,5.55
2018-01-10T08:52:52.837Z,5.58
2018-01-10T08:53:55.793Z,5.74
2018-01-10T08:54:58.690Z,5.71
2018-01-10T08:56:01.586Z,5.70
2018-01-10T08:57:04.607Z,5.74
2018-01-10T08:58:07.528Z,5.78
2018-01-10T08:59:10.892Z,5.75
2018-01-10T09:00:13.838Z,5.79
2018-01-10T09:01:16.774Z,5.81
2018-01-10T09:02:19.799Z,5.79
2018-01-10T09:03:22.829Z,5.76
2018-01-10T09:04:25.844Z,5.87
2018-01-10T09:05:29.270Z,5.82
2018-01-10T09:06:32.200Z,5.81
2018-01-10T09:07:35.346Z,5.87
2018-01-10T09:08:38.433Z,5.93
2018-01-10T09:09:41.459Z,5.87
2018-01-10T09:10:44.464Z,5.97
2018-01-10T09:11:47.880Z,5.97
2018-01-10T09:12:50.847Z,5.99
2018-01-10T09:13:53.893Z,5.90
2018-01-10T09:14:56.915Z,5.88
2018-01-10T09:15:59.896Z,5.91
2018-01-10T09:17:03.316Z,5.95
2018-01-10T09:18:06.973Z,5.99
2018-01-10T09:19:09.961Z,5.99
2018-01-10T09:20:12.937Z,6.20
2018-01-10T09:21:15.920Z,6.14
2018-01-10T09:22:18.912Z,6.31
2018-01-10T09:23:23.001Z,6.32
2018-01-10T09:24:25.966Z,6.37
2018-01-10T09:25:29.060Z,6.42
2018-01-10T09:26:32.043Z,6.51
2018-01-10T09:27:35.494Z,6.31
2018-01-10T09:28:38.465Z,6.25
2018-01-10T09:29:41.877Z,6.46
2018-01-10T09:30:44.939Z,6.63
2018-01-10T09:31:47.974Z,6.44
2018-01-10T09:32:50.938Z,6.40
2018-01-10T09:33:53.910Z,6.60
2018-01-10T09:34:56.858Z,6.76
2018-01-10T09:36:00.477Z,7.52
2018-01-10T09:37:03.476Z,8.17
2018-01-10T09:38:18.491Z,9.61
2018-01-10T09:39:21.479Z,10.38
2018-01-10T09:40:24.460Z,11.05
2018-01-10T09:41:27.429Z,12.09
2018-01-10T09:42:30.369Z,10.50
2018-01-10T09:43:33.313Z,9.84
2018-01-10T09:44:36.333Z,10.07
2018-01-10T09:45:39.338Z,10.46
2018-01-10T09:46:42.306Z,10.97
2018-01-10T09:47:45.653Z,11.25
2018-01-10T09:48:48.707Z,10.75
2018-01-10T09:49:51.687Z,11.26
2018-01-10T09:50:54.645Z,9.42
2018-01-10T09:51:57.711Z,9.03
2018-01-10T09:53:00.683Z,9.53
2018-01-10T09:54:05.290Z,9.36
2018-01-10T09:55:08.275Z,8.96
2018-01-10T09:56:11.312Z,8.71
2018-01-10T09:57:14.723Z,9.22
2018-01-10T09:58:17.807Z,9.67
2018-01-10T09:59:20.811Z,9.73
2018-01-10T10:00:24.195Z,9.32
2018-01-10T10:01:27.233Z,10.26
2018-01-10T10:02:30.198Z,10.03
2018-01-10T10:03:33.137Z,9.13
2018-01-10T10:04:36.154Z,9.59
2018-01-10T10:05:39.185Z,9.83
2018-01-10T10:06:42.607Z,9.57
2018-01-10T10:07:45.707Z,9.42
2018-01-10T10:08:48.731Z,9.72
2018-01-10T10:09:51.720Z,9.49
2018-01-10T10:10:54.748Z,9.14
2018-01-10T10:11:57.721Z,8.78
2018-01-10T10:13:01.161Z,9.78
2018-01-10T10:14:04.192Z,9.63
2018-01-10T10:15:07.253Z,8.83
2018-01-10T10:16:10.255Z,8.60
2018-01-10T10:17:13.227Z,9.33
2018-01-10T10:18:16.182Z,9.73
2018-01-10T10:19:19.526Z,10.21
2018-01-10T10:20:22.548Z,10.12
2018-01-10T10:21:25.517Z,9.05
2018-01-10T10:22:28.523Z,8.73
2018-01-10T10:23:31.598Z,8.43
2018-01-10T10:24:34.609Z,8.33
2018-01-10T10:25:38.118Z,8.84
2018-01-10T10:26:41.116Z,9.33
2018-01-10T10:27:44.188Z,9.91
2018-01-10T10:28:47.175Z,10.06
2018-01-10T10:29:50.226Z,10.85
2018-01-10T10:30:53.240Z,11.66
2018-01-10T10:31:56.712Z,11.49
2018-01-10T10:32:59.740Z,11.52
2018-01-10T10:34:02.761Z,12.33
2018-01-10T10:35:05.718Z,11.82
2018-01-10T10:36:08.928Z,12.32
2018-01-10T10:37:12.120Z,11.18
2018-01-10T10:38:15.568Z,10.91
2018-01-10T10:39:18.582Z,11.44
2018-01-10T10:40:21.577Z,10.88
2018-01-10T10:41:24.596Z,10.84
2018-01-10T10:42:27.596Z,9.91
2018-01-10T10:43:30.612Z,11.10
2018-01-10T10:44:34.039Z,11.19
2018-01-10T10:45:36.998Z,10.84
2018-01-10T10:46:40.038Z,9.35
2018-01-10T10:47:43.062Z,10.07
2018-01-10T10:48:46.144Z,11.32
2018-01-10T10:49:49.597Z,12.63
2018-01-10T10:50:52.602Z,11.80
2018-01-10T10:51:55.596Z,10.96
2018-01-10T10:52:58.600Z,11.18
2018-01-10T10:54:01.592Z,11.81
2018-01-10T10:55:04.566Z,11.66
2018-01-10T10:56:07.882Z,11.98
2018-01-10T10:57:10.988Z,11.29
2018-01-10T10:58:13.943Z,12.08
2018-01-10T10:59:17.011Z,11.28
2018-01-10T11:00:21.122Z,11.18
2018-01-10T11:01:24.082Z,11.51
2018-01-10T11:02:27.396Z,11.63
2018-01-10T11:03:30.422Z,11.61
2018-01-10T11:04:33.610Z,10.92
2018-01-10T11:05:36.588Z,10.34
2018-01-10T11:06:39.661Z,10.69
2018-01-10T11:07:42.622Z,10.55
2018-01-10T11:08:46.014Z,10.84
2018-01-10T11:09:49.020Z,10.83
2018-01-10T11:10:52.095Z,11.24
2018-01-10T11:11:55.057Z,11.39
2018-01-10T11:12:58.075Z,11.67
2018-01-10T11:14:01.041Z,11.53
2018-01-10T11:15:04.694Z,11.07
2018-01-10T11:16:07.658Z,11.22
2018-01-10T11:17:10.748Z,10.89
2018-01-10T11:18:13.751Z,10.43
2018-01-10T11:19:17.049Z,11.34
2018-01-10T11:20:19.996Z,11.07
2018-01-10T11:21:23.310Z,11.39
2018-01-10T11:22:26.267Z,11.81
2018-01-10T11:23:29.272Z,11.97
2018-01-10T11:24:32.164Z,12.16
2018-01-10T11:25:35.243Z,11.53
2018-01-10T11:26:38.274Z,12.05
2018-01-10T11:27:41.685Z,12.62
2018-01-10T11:28:44.699Z,13.38
2018-01-10T11:29:47.683Z,11.57
2018-01-10T11:30:50.693Z,11.73
2018-01-10T11:31:53.653Z,11.84
2018-01-10T11:32:56.689Z,10.95
2018-01-10T11:34:02.172Z,9.95
2018-01-10T11:35:05.169Z,10.18
2018-01-10T11:36:08.123Z,9.59
2018-01-10T11:37:11.112Z,9.83
2018-01-10T11:38:14.202Z,9.69
2018-01-10T11:39:17.142Z,9.78
2018-01-10T11:40:20.555Z,9.96
2018-01-10T11:41:23.524Z,9.65
2018-01-10T11:42:26.534Z,9.50
2018-01-10T11:43:29.727Z,8.78
2018-01-10T11:44:32.873Z,9.15
2018-01-10T11:45:36.009Z,9.09
2018-01-10T11:46:39.428Z,8.55
2018-01-10T11:47:42.434Z,9.04
2018-01-10T11:48:45.991Z,9.32
2018-01-10T11:49:49.527Z,9.10
2018-01-10T11:50:52.575Z,9.09
2018-01-10T11:51:55.645Z,10.01
2018-01-10T11:52:59.154Z,10.07
2018-01-10T11:54:02.175Z,9.89
2018-01-10T11:55:05.198Z,9.20
2018-01-10T11:56:08.199Z,8.95
2018-01-10T11:57:11.450Z,9.17
2018-01-10T11:58:14.523Z,8.90
2018-01-10T11:59:18.015Z,8.81
2018-01-10T12:00:21.015Z,9.04
2018-01-10T12:01:24.083Z,8.91
2018-01-10T12:02:27.165Z,9.41
2018-01-10T12:03:30.247Z,9.57
2018-01-10T12:04:34.243Z,9.16
2018-01-10T12:05:37.723Z,9.28
2018-01-10T12:06:41.183Z,9.26
2018-01-10T12:07:44.189Z,9.16
2018-01-10T12:08:47.191Z,8.97
2018-01-10T12:09:50.244Z,9.07
2018-01-10T12:10:53.367Z,8.76
2018-01-10T12:11:56.923Z,8.98
2018-01-10T12:12:59.894Z,8.76
2018-01-10T12:14:02.931Z,8.95
2018-01-10T12:15:06.219Z,8.94
2018-01-10T12:16:09.194Z,9.12
2018-01-10T12:17:12.342Z,10.08
2018-01-10T12:18:15.670Z,9.80
2018-01-10T12:19:19.470Z,9.06
2018-01-10T12:20:22.438Z,8.87
2018-01-10T12:21:25.492Z,9.00
2018-01-10T12:22:30.037Z,9.69
2018-01-10T12:23:33.158Z,9.75
2018-01-10T12:24:36.298Z,9.42
2018-01-10T12:25:39.547Z,9.96
2018-01-10T12:26:42.619Z,10.18
2018-01-10T12:27:45.628Z,10.35
2018-01-10T12:28:48.711Z,10.26
2018-01-10T12:29:51.745Z,9.92
2018-01-10T12:30:55.112Z,10.13
2018-01-10T12:31:58.135Z,10.23
2018-01-10T12:33:01.232Z,8.97
2018-01-10T12:34:04.186Z,8.88
2018-01-10T12:35:07.199Z,8.82
2018-01-10T12:36:10.262Z,9.00
2018-01-10T12:37:13.601Z,8.93
2018-01-10T12:38:16.621Z,9.01
2018-01-10T12:39:20.074Z,9.03
2018-01-10T12:40:23.198Z,9.36
2018-01-10T12:41:26.184Z,9.69
2018-01-10T12:42:29.977Z,9.66
2018-01-10T12:43:33.934Z,9.83
2018-01-10T12:44:41.872Z,9.75
2018-01-10T12:45:45.120Z,9.56
2018-01-10T12:46:49.106Z,9.80
2018-01-10T12:47:52.518Z,9.72
2018-01-10T12:48:56.451Z,8.95
2018-01-10T12:49:59.900Z,8.89
2018-01-10T12:51:03.297Z,9.07
2018-01-10T12:52:06.285Z,9.04
2018-01-10T12:53:09.386Z,8.80
2018-01-10T12:54:12.409Z,8.48
2018-01-10T12:55:15.455Z,8.76
2018-01-10T12:56:18.913Z,8.87
2018-01-10T12:57:22.023Z,8.64
2018-01-10T12:58:25.315Z,8.68
2018-01-10T12:59:28.405Z,8.71
2018-01-10T13:00:31.502Z,8.69
2018-01-10T13:01:34.484Z,8.76
2018-01-10T13:02:37.866Z,8.35
2018-01-10T13:03:40.821Z,8.47
2018-01-10T13:04:43.992Z,8.66
2018-01-10T13:05:46.972Z,8.51
2018-01-10T13:06:49.957Z,8.46
2018-01-10T13:07:53.016Z,8.47
2018-01-10T13:08:56.308Z,8.40
2018-01-10T13:09:59.257Z,8.36
2018-01-10T13:11:02.355Z,8.65
2018-01-10T13:12:05.443Z,8.52
2018-01-10T13:13:08.430Z,8.57
2018-01-10T13:14:12.312Z,8.52
2018-01-10T13:15:15.325Z,8.75
2018-01-10T13:16:18.339Z,8.68
2018-01-10T13:17:21.448Z,8.87
2018-01-10T13:18:24.456Z,8.85
2018-01-10T13:19:27.458Z,8.60
2018-01-10T13:20:30.967Z,8.67
2018-01-10T13:21:34.017Z,8.84
2018-01-10T13:22:37.023Z,8.89
2018-01-10T13:23:39.990Z,8.80
2018-01-10T13:24:43.056Z,8.67
2018-01-10T13:25:46.307Z,8.56
2018-01-10T13:26:49.862Z,8.58
2018-01-10T13:27:52.856Z,8.60
2018-01-10T13:28:56.050Z,8.66
2018-01-10T13:29:59.017Z,8.70
2018-01-10T13:31:02.440Z,8.71
2018-01-10T13:32:07.173Z,8.83
2018-01-10T13:33:11.137Z,8.79
2018-01-10T13:34:14.510Z,8.82
2018-01-10T13:35:17.506Z,8.84
2018-01-10T13:36:22.557Z,8.77
2018-01-10T13:37:25.704Z,8.80
2018-01-10T13:38:28.974Z,8.93
2018-01-10T13:39:32.442Z,8.90
2018-01-10T13:40:35.479Z,8.97
2018-01-10T13:41:38.559Z,8.96
2018-01-10T13:42:42.030Z,8.92
2018-01-10T13:43:45.268Z,8.90
2018-01-10T13:44:48.338Z,8.90
2018-01-10T13:45:51.636Z,8.83
2018-01-10T13:46:55.180Z,8.83
2018-01-10T13:47:58.376Z,8.87
2018-01-10T13:49:01.651Z,8.93
2018-01-10T13:50:04.726Z,8.92
2018-01-10T13:51:07.713Z,8.88
2018-01-10T13:52:11.137Z,8.87
2018-01-10T13:53:14.169Z,8.92
2018-01-10T13:54:17.294Z,8.83
2018-01-10T13:55:20.287Z,8.80
2018-01-10T13:56:23.300Z,8.90
2018-01-10T13:57:26.415Z,8.81